Kirsten H — WY7979 — position and weather

sailwx.info

Track history (hours):
 
Tides and Currents Weather Stations Pressure Air Temp Water Temp Dewpoint Dewpoint Depression Visibility Wind Speed Wind Dir Waves Ship Positions

Kirsten H

Owner: BOYER TOWING, KETCHIKAN, AK. More information available from US FCC via Universal Licensing System and Coast Guard Vessel Documentation Center.

Last reported at 2018-Apr-22 07:45 UTC. Time now 2018-Apr-24 03:07 UTC.
Position N 54°36' W 130°44'.

Length 22 m.

Type: Tug. MMSI: 366623050.

Date/timePositionNaut miles runAvg speedWind from/ knotsBaromVisibWave heightAir tempDewpointWater temp
2018-Apr-22 07:45N 54°36' W 130°44'310.6
2018-Apr-22 07:28N 54°33' W 130°43'510.4
2018-Apr-22 07:00N 54°28' W 130°41'511.0
2018-Apr-22 06:30N 54°23' W 130°38'612.0
2018-Apr-22 06:00N 54°17' W 130°34'611.5
2018-Apr-22 05:30N 54°13' W 130°29'611.1
2018-Apr-22 05:00N 54°08' W 130°24'611.2
2018-Apr-22 04:30N 54°04' W 130°17'611.1
2018-Apr-22 04:00N 53°59' W 130°13'510.5
2018-Apr-22 03:30N 53°54' W 130°09'511.0
2018-Apr-22 03:00N 53°51' W 130°02'107 9.2
2018-Apr-21 15:28N 52°25' W 128°18'5 9.8
2018-Apr-21 14:59N 52°21' W 128°23'4 8.9
2018-Apr-21 14:29N 52°17' W 128°26'9 9.8
2018-Apr-21 13:35N 52°14' W 128°13'5 7.9
2018-Apr-21 13:00N 52°11' W 128°07'4 8.2
2018-Apr-21 12:30N 52°07' W 128°08'5 8.7
2018-Apr-21 11:57N 52°05' W 128°00'4 9.5
2018-Apr-21 11:30N 52°02' W 127°55'511.0
2018-Apr-21 11:00N 51°57' W 127°56'510.8
2018-Apr-21 10:30N 51°52' W 127°57'510.2
2018-Apr-21 10:00N 51°47' W 127°59'510.4
2018-Apr-21 09:30N 51°41' W 127°58'510.7
2018-Apr-21 09:00N 51°37' W 127°54'611.0
2018-Apr-21 08:28N 51°31' W 127°52'511.4
2018-Apr-21 08:01N 51°26' W 127°52'611.4
2018-Apr-21 07:30N 51°20' W 127°52'611.2
2018-Apr-21 06:58N 51°14' W 127°51'511.3
2018-Apr-21 06:30N 51°09' W 127°49'611.4
2018-Apr-21 06:00N 51°05' W 127°42'1011.5
2018-Apr-21 05:06N 50°58' W 127°30'111.5
2018-Apr-21 05:00N 50°57' W 127°29'611.6
2018-Apr-21 04:30N 50°54' W 127°21'611.5
2018-Apr-21 04:00N 50°51' W 127°13'611.3
2018-Apr-21 03:30N 50°48' W 127°05'6910.1
2018-Apr-20 20:37N 50°20' W 125°26'111.5
2018-Apr-20 20:30N 50°19' W 125°25'611.8
2018-Apr-20 19:59N 50°13' W 125°23'713.5
2018-Apr-20 19:30N 50°07' W 125°19'714.7
2018-Apr-20 19:00N 50°01' W 125°13'612.2
2018-Apr-20 18:29N 49°56' W 125°07'511.0
2018-Apr-20 17:59N 49°52' W 125°00'510.8
2018-Apr-20 17:30N 49°49' W 124°54'610.4
2018-Apr-20 16:58N 49°46' W 124°47'510.4
2018-Apr-20 16:30N 49°43' W 124°41'610.3
2018-Apr-20 15:57N 49°40' W 124°34'3510.5
2018-Apr-20 12:40N 49°20' W 123°50'210.9
2018-Apr-20 12:26N 49°19' W 123°47'510.3
2018-Apr-20 11:58N 49°16' W 123°40'7 9.9
2018-Apr-20 11:16N 49°11' W 123°33'410.3
2018-Apr-20 10:52N 49°09' W 123°28'410.2
2018-Apr-20 10:30N 49°06' W 123°24'1110.4
2018-Apr-20 09:29N 48°59' W 123°12'2310.2
2018-Apr-20 07:15N 48°44' W 122°45'310.2
2018-Apr-20 07:00N 48°42' W 122°44'5 9.9
2018-Apr-20 06:30N 48°37' W 122°44'5 9.6
2018-Apr-20 06:00N 48°32' W 122°44'510.7
2018-Apr-20 05:30N 48°27' W 122°44'610.7
2018-Apr-20 04:58N 48°21' W 122°45'24 9.3
2018-Apr-20 02:26N 47°58' W 122°38'5 8.6
2018-Apr-20 01:51N 47°55' W 122°32'3 9.1
2018-Apr-20 01:30N 47°52' W 122°30'5 9.6
2018-Apr-20 01:01N 47°48' W 122°28'4 8.9
2018-Apr-20 00:30N 47°43' W 122°29'5 9.3
2018-Apr-20 00:00N 47°39' W 122°27'5 9.7
2018-Apr-19 23:30N 47°35' W 122°22'  
2018-Apr-13 22:32N 47°32' W 122°20'0 3.2
2018-Apr-13 22:30N 47°32' W 122°20'0 0.1
2018-Apr-13 21:59N 47°32' W 122°20'0 0.2
2018-Apr-13 21:29N 47°32' W 122°20'0 0.8
2018-Apr-13 21:00N 47°32' W 122°19'0 0.0
2018-Apr-13 20:30N 47°32' W 122°19'0 0.0
2018-Apr-13 20:00N 47°32' W 122°19'0 0.0
2018-Apr-13 19:30N 47°32' W 122°19'0 0.0
2018-Apr-13 19:00N 47°32' W 122°19'0 0.4
2018-Apr-13 18:24N 47°32' W 122°20'0 0.3
2018-Apr-13 18:00N 47°32' W 122°19'0 0.0
2018-Apr-13 00:07N 47°32' W 122°20'0 4.6
2018-Apr-13 00:00N 47°33' W 122°20'4 7.2
2018-Apr-12 23:30N 47°36' W 122°22'5 9.2
2018-Apr-12 23:00N 47°40' W 122°27'2 3.9
2018-Apr-12 22:30N 47°40' W 122°24'1 2.3
2018-Apr-12 22:00N 47°39' W 122°22'1 2.0
2018-Apr-12 21:30N 47°40' W 122°23'0 0.0
2018-Apr-12 21:00N 47°40' W 122°23'0 0.0
2018-Apr-12 20:30N 47°40' W 122°23'0 0.0
2018-Apr-12 20:00N 47°40' W 122°23'0 0.0
2018-Apr-12 19:30N 47°40' W 122°23'0 0.0
2018-Apr-12 19:00N 47°40' W 122°23'0 0.0
2018-Apr-12 18:30N 47°40' W 122°23'0 0.0
2018-Apr-12 18:00N 47°40' W 122°23'0 0.0
2018-Apr-12 17:30N 47°40' W 122°23'0 0.0
2018-Apr-12 17:00N 47°40' W 122°23'0 0.0
2018-Apr-12 16:30N 47°40' W 122°23'0 0.0
2018-Apr-12 16:00N 47°40' W 122°23'1 1.5
2018-Apr-12 15:30N 47°40' W 122°24'3 5.2
2018-Apr-12 15:00N 47°38' W 122°24'4 8.7
2018-Apr-12 14:30N 47°34' W 122°21'2 3.5
2018-Apr-12 13:57N 47°32' W 122°20'  
Track history (hours):
 
Tides and Currents Weather Stations Pressure Air Temp Water Temp Dewpoint Dewpoint Depression Visibility Wind Speed Wind Dir Waves Ship Positions

Kirsten H

Owner: BOYER TOWING, KETCHIKAN, AK. More information available from US FCC via Universal Licensing System and Coast Guard Vessel Documentation Center.

Last reported at 2018-Apr-22 07:45 UTC. Time now 2018-Apr-24 03:07 UTC.
Position N 54°36' W 130°44'.

Length 22 m.

Type: Tug. MMSI: 366623050.

Date/timePositionNaut miles runAvg speedWind from/ knotsBaromVisibWave heightAir tempDewpointWater temp
2018-Apr-22 07:45N 54°36' W 130°44'310.6
2018-Apr-22 07:28N 54°33' W 130°43'510.4
2018-Apr-22 07:00N 54°28' W 130°41'511.0
2018-Apr-22 06:30N 54°23' W 130°38'612.0
2018-Apr-22 06:00N 54°17' W 130°34'611.5
2018-Apr-22 05:30N 54°13' W 130°29'611.1
2018-Apr-22 05:00N 54°08' W 130°24'611.2
2018-Apr-22 04:30N 54°04' W 130°17'611.1
2018-Apr-22 04:00N 53°59' W 130°13'510.5
2018-Apr-22 03:30N 53°54' W 130°09'511.0
2018-Apr-22 03:00N 53°51' W 130°02'107 9.2
2018-Apr-21 15:28N 52°25' W 128°18'5 9.8
2018-Apr-21 14:59N 52°21' W 128°23'4 8.9
2018-Apr-21 14:29N 52°17' W 128°26'9 9.8
2018-Apr-21 13:35N 52°14' W 128°13'5 7.9
2018-Apr-21 13:00N 52°11' W 128°07'4 8.2
2018-Apr-21 12:30N 52°07' W 128°08'5 8.7
2018-Apr-21 11:57N 52°05' W 128°00'4 9.5
2018-Apr-21 11:30N 52°02' W 127°55'511.0
2018-Apr-21 11:00N 51°57' W 127°56'510.8
2018-Apr-21 10:30N 51°52' W 127°57'510.2
2018-Apr-21 10:00N 51°47' W 127°59'510.4
2018-Apr-21 09:30N 51°41' W 127°58'510.7
2018-Apr-21 09:00N 51°37' W 127°54'611.0
2018-Apr-21 08:28N 51°31' W 127°52'511.4
2018-Apr-21 08:01N 51°26' W 127°52'611.4
2018-Apr-21 07:30N 51°20' W 127°52'611.2
2018-Apr-21 06:58N 51°14' W 127°51'511.3
2018-Apr-21 06:30N 51°09' W 127°49'611.4
2018-Apr-21 06:00N 51°05' W 127°42'1011.5
2018-Apr-21 05:06N 50°58' W 127°30'111.5
2018-Apr-21 05:00N 50°57' W 127°29'611.6
2018-Apr-21 04:30N 50°54' W 127°21'611.5
2018-Apr-21 04:00N 50°51' W 127°13'611.3
2018-Apr-21 03:30N 50°48' W 127°05'6910.1
2018-Apr-20 20:37N 50°20' W 125°26'111.5
2018-Apr-20 20:30N 50°19' W 125°25'611.8
2018-Apr-20 19:59N 50°13' W 125°23'713.5
2018-Apr-20 19:30N 50°07' W 125°19'714.7
2018-Apr-20 19:00N 50°01' W 125°13'612.2
2018-Apr-20 18:29N 49°56' W 125°07'511.0
2018-Apr-20 17:59N 49°52' W 125°00'510.8
2018-Apr-20 17:30N 49°49' W 124°54'610.4
2018-Apr-20 16:58N 49°46' W 124°47'510.4
2018-Apr-20 16:30N 49°43' W 124°41'610.3
2018-Apr-20 15:57N 49°40' W 124°34'3510.5
2018-Apr-20 12:40N 49°20' W 123°50'210.9
2018-Apr-20 12:26N 49°19' W 123°47'510.3
2018-Apr-20 11:58N 49°16' W 123°40'7 9.9
2018-Apr-20 11:16N 49°11' W 123°33'410.3
2018-Apr-20 10:52N 49°09' W 123°28'410.2
2018-Apr-20 10:30N 49°06' W 123°24'1110.4
2018-Apr-20 09:29N 48°59' W 123°12'2310.2
2018-Apr-20 07:15N 48°44' W 122°45'310.2
2018-Apr-20 07:00N 48°42' W 122°44'5 9.9
2018-Apr-20 06:30N 48°37' W 122°44'5 9.6
2018-Apr-20 06:00N 48°32' W 122°44'510.7
2018-Apr-20 05:30N 48°27' W 122°44'610.7
2018-Apr-20 04:58N 48°21' W 122°45'24 9.3
2018-Apr-20 02:26N 47°58' W 122°38'5 8.6
2018-Apr-20 01:51N 47°55' W 122°32'3 9.1
2018-Apr-20 01:30N 47°52' W 122°30'5 9.6
2018-Apr-20 01:01N 47°48' W 122°28'4 8.9
2018-Apr-20 00:30N 47°43' W 122°29'5 9.3
2018-Apr-20 00:00N 47°39' W 122°27'5 9.7
2018-Apr-19 23:30N 47°35' W 122°22'  
2018-Apr-13 22:32N 47°32' W 122°20'0 3.2
2018-Apr-13 22:30N 47°32' W 122°20'0 0.1
2018-Apr-13 21:59N 47°32' W 122°20'0 0.2
2018-Apr-13 21:29N 47°32' W 122°20'0 0.8
2018-Apr-13 21:00N 47°32' W 122°19'0 0.0
2018-Apr-13 20:30N 47°32' W 122°19'0 0.0
2018-Apr-13 20:00N 47°32' W 122°19'0 0.0
2018-Apr-13 19:30N 47°32' W 122°19'0 0.0
2018-Apr-13 19:00N 47°32' W 122°19'0 0.4
2018-Apr-13 18:24N 47°32' W 122°20'0 0.3
2018-Apr-13 18:00N 47°32' W 122°19'0 0.0
2018-Apr-13 00:07N 47°32' W 122°20'0 4.6
2018-Apr-13 00:00N 47°33' W 122°20'4 7.2
2018-Apr-12 23:30N 47°36' W 122°22'5 9.2
2018-Apr-12 23:00N 47°40' W 122°27'2 3.9
2018-Apr-12 22:30N 47°40' W 122°24'1 2.3
2018-Apr-12 22:00N 47°39' W 122°22'1 2.0
2018-Apr-12 21:30N 47°40' W 122°23'0 0.0
2018-Apr-12 21:00N 47°40' W 122°23'0 0.0
2018-Apr-12 20:30N 47°40' W 122°23'0 0.0
2018-Apr-12 20:00N 47°40' W 122°23'0 0.0
2018-Apr-12 19:30N 47°40' W 122°23'0 0.0
2018-Apr-12 19:00N 47°40' W 122°23'0 0.0
2018-Apr-12 18:30N 47°40' W 122°23'0 0.0
2018-Apr-12 18:00N 47°40' W 122°23'0 0.0
2018-Apr-12 17:30N 47°40' W 122°23'0 0.0
2018-Apr-12 17:00N 47°40' W 122°23'0 0.0
2018-Apr-12 16:30N 47°40' W 122°23'0 0.0
2018-Apr-12 16:00N 47°40' W 122°23'1 1.5
2018-Apr-12 15:30N 47°40' W 122°24'3 5.2
2018-Apr-12 15:00N 47°38' W 122°24'4 8.7
2018-Apr-12 14:30N 47°34' W 122°21'2 3.5
2018-Apr-12 13:57N 47°32' W 122°20'  

Dump ship's entire track history